Crown Princess — ZCDM6 — position and weather

sailwx.info

Track history (hours):
 
Tides and Currents Weather Stations Pressure Air Temp Water Temp Dewpoint Dewpoint Depression Visibility Wind Speed Wind Dir Waves Ship Positions

Crown Princess

Last reported at 2016-Jun-27 07:00 UTC. Time now 2016-Jun-28 09:45 UTC.
Position N 55°00' W 134°06'.

Type: Ship. MMSI: 310500000.

Wind from 130 at 11 knots

Waves 0.5 meters (2 feet), 1 second period

Barometer 1026.0 mb
Air temperature 12.3 ° C
Visibility: greater than 10.8 NM
Dewpoint 10.9 ° C
Water temperature 12.0 ° C

Date/timePositionNaut miles runAvg speedWind from/ knotsBaromVisibWave heightAir tempDewpointWater temp
2016-Jun-27 07:00N 55°00' W 134°06'18520.6 130 / 111026.010.8 0.512.310.912.0
2016-Jun-26 22:00N 52°12' W 131°54'26022.8 110 / 11027.810.8 13.5 9.913.0
2016-Jun-26 10:34N 49°16' W 126°51'2120.8
2016-Jun-26 09:33N 49°04' W 126°25'2120.7
2016-Jun-26 08:33N 48°52' W 125°60'2120.8
2016-Jun-26 07:33N 48°39' W 125°34'2020.5
2016-Jun-26 06:34N 48°31' W 125°06'2323.4
2016-Jun-26 05:34N 48°27' W 124°31'2222.2
2016-Jun-26 04:33N 48°18' W 124°00'2020.3
2016-Jun-26 03:33N 48°14' W 123°31'1514.0
2016-Jun-26 02:31N 48°12' W 123°09'1816.6
2016-Jun-26 01:26N 48°09' W 122°43'1618.2
2016-Jun-26 00:33N 47°55' W 122°30'1817.7
2016-Jun-25 23:33N 47°37' W 122°25'1 1.4
2016-Jun-25 22:32N 47°38' W 122°23'0 0.0
2016-Jun-25 21:31N 47°38' W 122°23'0 0.0
2016-Jun-25 20:31N 47°38' W 122°23'0 0.0
2016-Jun-25 19:33N 47°38' W 122°23'0 0.0
2016-Jun-25 18:33N 47°38' W 122°23'0 0.0
2016-Jun-25 17:32N 47°38' W 122°23'0 0.0
2016-Jun-25 16:32N 47°38' W 122°23'0 0.0
2016-Jun-25 15:32N 47°38' W 122°23'0 0.0
2016-Jun-25 14:31N 47°38' W 122°23'0 0.0
2016-Jun-25 13:31N 47°38' W 122°23'3 3.6
2016-Jun-25 12:33N 47°39' W 122°28'1413.9
2016-Jun-25 11:34N 47°53' W 122°29'1514.9
2016-Jun-25 10:34N 48°06' W 122°40'6 9.8
2016-Jun-25 10:00N 48°06' W 122°48'1023.5 130 / 151023.810.8 1.012.2 11.0
2016-Jun-25 09:34N 48°12' W 123°01'1515.1
2016-Jun-25 08:33N 48°10' W 123°23'1111.2
2016-Jun-25 07:34N 48°21' W 123°25'4 3.6
2016-Jun-25 06:30N 48°25' W 123°24'0 0.0
2016-Jun-25 01:30N 48°25' W 123°24'1111.5
2016-Jun-25 00:32N 48°14' W 123°29'2020.2
2016-Jun-24 23:32N 48°15' W 123°59'1919.9
2016-Jun-24 22:33N 48°23' W 124°26'2019.6
2016-Jun-24 21:33N 48°29' W 124°54'2020.4
2016-Jun-24 20:33N 48°33' W 125°24'2020.3
2016-Jun-24 19:33N 48°44' W 125°50'1919.0
2016-Jun-24 18:33N 48°54' W 126°15'2120.5
2016-Jun-24 17:33N 49°07' W 126°39'2019.9
2016-Jun-24 16:33N 49°20' W 127°02'61015.2
2016-Jun-23 00:32N 58°12' W 135°26'1919.1
2016-Jun-22 23:34N 58°22' W 135°57'1312.6
2016-Jun-22 22:33N 58°34' W 136°04'1313.0
2016-Jun-22 21:33N 58°45' W 136°18'2 0.4
2016-Jun-22 15:33N 58°43' W 136°14'1212.4
2016-Jun-22 14:33N 58°32' W 136°04'1111.2
2016-Jun-22 13:33N 58°21' W 135°57'1212.2
2016-Jun-22 12:34N 58°16' W 135°36'124 2.5
2016-Jun-20 11:00N 56°18' W 134°24'9724.2 180 / 121026.810.8 0.510.2 7.911.0
2016-Jun-20 07:00N 54°42' W 134°00'11619.3 290 / 161030.510.8 0.510.5 6.610.0
2016-Jun-20 01:00N 52°54' W 132°48'6020.1 330 / 211031.110.8 0.512.510.213.0
2016-Jun-19 22:00N 52°06' W 131°48'8721.8 320 / 181030.210.8 0.512.510.213.0
2016-Jun-19 18:00N 51°06' W 130°06'15422.0 260 / 111029.9 5.4 0.512.310.311.0
2016-Jun-19 11:00N 49°24' W 127°06'410.3 040 / 121027.310.8 0.513.012.112.0
2016-Jun-19 10:34N 49°21' W 127°01'2121.1
2016-Jun-19 09:34N 49°08' W 126°35'2121.0
2016-Jun-19 08:34N 48°56' W 126°09'2121.2
2016-Jun-19 07:34N 48°44' W 125°43'2221.8
2016-Jun-19 06:34N 48°31' W 125°16'711.6
2016-Jun-19 06:00N 48°30' W 125°06'1534.3 200 / 151027.110.8 13.010.313.0
2016-Jun-19 05:34N 48°31' W 124°44'2221.7
2016-Jun-19 04:33N 48°22' W 124°13'2121.4
2016-Jun-19 03:33N 48°16' W 123°42'1717.0
2016-Jun-19 02:33N 48°09' W 123°19'2121.0
2016-Jun-19 01:33N 48°10' W 122°48'1919.4
2016-Jun-19 00:33N 47°55' W 122°30'1717.0
2016-Jun-18 23:33N 47°38' W 122°26'2 2.4
2016-Jun-18 22:33N 47°38' W 122°23'0 0.0
2016-Jun-18 21:33N 47°38' W 122°23'0 0.0
2016-Jun-18 20:31N 47°38' W 122°23'0 0.0
2016-Jun-18 19:31N 47°38' W 122°23'0 0.0
2016-Jun-18 18:33N 47°38' W 122°23'0 0.0
2016-Jun-18 17:33N 47°38' W 122°23'0 0.0
2016-Jun-18 16:33N 47°38' W 122°23'0 0.0
2016-Jun-18 15:32N 47°38' W 122°23'0 0.0
2016-Jun-18 14:33N 47°38' W 122°23'0 0.0
2016-Jun-18 13:32N 47°38' W 122°23'3 3.0
2016-Jun-18 12:33N 47°39' W 122°27'1414.1
2016-Jun-18 11:33N 47°53' W 122°29'1414.3
2016-Jun-18 10:33N 48°05' W 122°40'1414.0
2016-Jun-18 09:33N 48°11' W 122°58'1514.9
2016-Jun-18 08:32N 48°10' W 123°21'1010.3
2016-Jun-18 07:33N 48°20' W 123°26'5 4.5
2016-Jun-18 06:21N 48°25' W 123°24'0 0.1
2016-Jun-18 01:34N 48°25' W 123°24'1313.1
2016-Jun-18 00:33N 48°13' W 123°35'2222.5
2016-Jun-17 23:34N 48°18' W 124°08'2423.5
2016-Jun-17 22:34N 48°28' W 124°40'2323.3
2016-Jun-17 21:34N 48°31' W 125°15'2323.2
2016-Jun-17 20:34N 48°41' W 125°46'2322.7
2016-Jun-17 19:33N 48°55' W 126°13'2322.9
2016-Jun-17 18:33N 49°08' W 126°42'6 9.8
2016-Jun-17 18:00N 49°12' W 126°48'1637.6 300 / 101022.410.8 0.513.5 9.611.0
2016-Jun-17 17:34N 49°22' W 127°07'  
Track history (hours):
 
Tides and Currents Weather Stations Pressure Air Temp Water Temp Dewpoint Dewpoint Depression Visibility Wind Speed Wind Dir Waves Ship Positions

Crown Princess

Last reported at 2016-Jun-27 07:00 UTC. Time now 2016-Jun-28 09:45 UTC.
Position N 55°00' W 134°06'.

Type: Ship. MMSI: 310500000.

Wind from 130 at 11 knots

Waves 0.5 meters (2 feet), 1 second period

Barometer 1026.0 mb
Air temperature 12.3 ° C
Visibility: greater than 10.8 NM
Dewpoint 10.9 ° C
Water temperature 12.0 ° C

Date/timePositionNaut miles runAvg speedWind from/ knotsBaromVisibWave heightAir tempDewpointWater temp
2016-Jun-27 07:00N 55°00' W 134°06'18520.6 130 / 111026.010.8 0.512.310.912.0
2016-Jun-26 22:00N 52°12' W 131°54'26022.8 110 / 11027.810.8 13.5 9.913.0
2016-Jun-26 10:34N 49°16' W 126°51'2120.8
2016-Jun-26 09:33N 49°04' W 126°25'2120.7
2016-Jun-26 08:33N 48°52' W 125°60'2120.8
2016-Jun-26 07:33N 48°39' W 125°34'2020.5
2016-Jun-26 06:34N 48°31' W 125°06'2323.4
2016-Jun-26 05:34N 48°27' W 124°31'2222.2
2016-Jun-26 04:33N 48°18' W 124°00'2020.3
2016-Jun-26 03:33N 48°14' W 123°31'1514.0
2016-Jun-26 02:31N 48°12' W 123°09'1816.6
2016-Jun-26 01:26N 48°09' W 122°43'1618.2
2016-Jun-26 00:33N 47°55' W 122°30'1817.7
2016-Jun-25 23:33N 47°37' W 122°25'1 1.4
2016-Jun-25 22:32N 47°38' W 122°23'0 0.0
2016-Jun-25 21:31N 47°38' W 122°23'0 0.0
2016-Jun-25 20:31N 47°38' W 122°23'0 0.0
2016-Jun-25 19:33N 47°38' W 122°23'0 0.0
2016-Jun-25 18:33N 47°38' W 122°23'0 0.0
2016-Jun-25 17:32N 47°38' W 122°23'0 0.0
2016-Jun-25 16:32N 47°38' W 122°23'0 0.0
2016-Jun-25 15:32N 47°38' W 122°23'0 0.0
2016-Jun-25 14:31N 47°38' W 122°23'0 0.0
2016-Jun-25 13:31N 47°38' W 122°23'3 3.6
2016-Jun-25 12:33N 47°39' W 122°28'1413.9
2016-Jun-25 11:34N 47°53' W 122°29'1514.9
2016-Jun-25 10:34N 48°06' W 122°40'6 9.8
2016-Jun-25 10:00N 48°06' W 122°48'1023.5 130 / 151023.810.8 1.012.2 11.0
2016-Jun-25 09:34N 48°12' W 123°01'1515.1
2016-Jun-25 08:33N 48°10' W 123°23'1111.2
2016-Jun-25 07:34N 48°21' W 123°25'4 3.6
2016-Jun-25 06:30N 48°25' W 123°24'0 0.0
2016-Jun-25 01:30N 48°25' W 123°24'1111.5
2016-Jun-25 00:32N 48°14' W 123°29'2020.2
2016-Jun-24 23:32N 48°15' W 123°59'1919.9
2016-Jun-24 22:33N 48°23' W 124°26'2019.6
2016-Jun-24 21:33N 48°29' W 124°54'2020.4
2016-Jun-24 20:33N 48°33' W 125°24'2020.3
2016-Jun-24 19:33N 48°44' W 125°50'1919.0
2016-Jun-24 18:33N 48°54' W 126°15'2120.5
2016-Jun-24 17:33N 49°07' W 126°39'2019.9
2016-Jun-24 16:33N 49°20' W 127°02'61015.2
2016-Jun-23 00:32N 58°12' W 135°26'1919.1
2016-Jun-22 23:34N 58°22' W 135°57'1312.6
2016-Jun-22 22:33N 58°34' W 136°04'1313.0
2016-Jun-22 21:33N 58°45' W 136°18'2 0.4
2016-Jun-22 15:33N 58°43' W 136°14'1212.4
2016-Jun-22 14:33N 58°32' W 136°04'1111.2
2016-Jun-22 13:33N 58°21' W 135°57'1212.2
2016-Jun-22 12:34N 58°16' W 135°36'124 2.5
2016-Jun-20 11:00N 56°18' W 134°24'9724.2 180 / 121026.810.8 0.510.2 7.911.0
2016-Jun-20 07:00N 54°42' W 134°00'11619.3 290 / 161030.510.8 0.510.5 6.610.0
2016-Jun-20 01:00N 52°54' W 132°48'6020.1 330 / 211031.110.8 0.512.510.213.0
2016-Jun-19 22:00N 52°06' W 131°48'8721.8 320 / 181030.210.8 0.512.510.213.0
2016-Jun-19 18:00N 51°06' W 130°06'15422.0 260 / 111029.9 5.4 0.512.310.311.0
2016-Jun-19 11:00N 49°24' W 127°06'410.3 040 / 121027.310.8 0.513.012.112.0
2016-Jun-19 10:34N 49°21' W 127°01'2121.1
2016-Jun-19 09:34N 49°08' W 126°35'2121.0
2016-Jun-19 08:34N 48°56' W 126°09'2121.2
2016-Jun-19 07:34N 48°44' W 125°43'2221.8
2016-Jun-19 06:34N 48°31' W 125°16'711.6
2016-Jun-19 06:00N 48°30' W 125°06'1534.3 200 / 151027.110.8 13.010.313.0
2016-Jun-19 05:34N 48°31' W 124°44'2221.7
2016-Jun-19 04:33N 48°22' W 124°13'2121.4
2016-Jun-19 03:33N 48°16' W 123°42'1717.0
2016-Jun-19 02:33N 48°09' W 123°19'2121.0
2016-Jun-19 01:33N 48°10' W 122°48'1919.4
2016-Jun-19 00:33N 47°55' W 122°30'1717.0
2016-Jun-18 23:33N 47°38' W 122°26'2 2.4
2016-Jun-18 22:33N 47°38' W 122°23'0 0.0
2016-Jun-18 21:33N 47°38' W 122°23'0 0.0
2016-Jun-18 20:31N 47°38' W 122°23'0 0.0
2016-Jun-18 19:31N 47°38' W 122°23'0 0.0
2016-Jun-18 18:33N 47°38' W 122°23'0 0.0
2016-Jun-18 17:33N 47°38' W 122°23'0 0.0
2016-Jun-18 16:33N 47°38' W 122°23'0 0.0
2016-Jun-18 15:32N 47°38' W 122°23'0 0.0
2016-Jun-18 14:33N 47°38' W 122°23'0 0.0
2016-Jun-18 13:32N 47°38' W 122°23'3 3.0
2016-Jun-18 12:33N 47°39' W 122°27'1414.1
2016-Jun-18 11:33N 47°53' W 122°29'1414.3
2016-Jun-18 10:33N 48°05' W 122°40'1414.0
2016-Jun-18 09:33N 48°11' W 122°58'1514.9
2016-Jun-18 08:32N 48°10' W 123°21'1010.3
2016-Jun-18 07:33N 48°20' W 123°26'5 4.5
2016-Jun-18 06:21N 48°25' W 123°24'0 0.1
2016-Jun-18 01:34N 48°25' W 123°24'1313.1
2016-Jun-18 00:33N 48°13' W 123°35'2222.5
2016-Jun-17 23:34N 48°18' W 124°08'2423.5
2016-Jun-17 22:34N 48°28' W 124°40'2323.3
2016-Jun-17 21:34N 48°31' W 125°15'2323.2
2016-Jun-17 20:34N 48°41' W 125°46'2322.7
2016-Jun-17 19:33N 48°55' W 126°13'2322.9
2016-Jun-17 18:33N 49°08' W 126°42'6 9.8
2016-Jun-17 18:00N 49°12' W 126°48'1637.6 300 / 101022.410.8 0.513.5 9.611.0
2016-Jun-17 17:34N 49°22' W 127°07'  

Dump ship's entire track history